sensor_id;sensor_type;location;lat;lon;timestamp;temperature;humidity
9802;DHT22;4940;50.900;4.672;2023-08-21T00:00:23;21.80;99.90
9802;DHT22;4940;50.900;4.672;2023-08-21T00:02:52;21.90;99.90
9802;DHT22;4940;50.900;4.672;2023-08-21T00:05:19;21.80;99.90
9802;DHT22;4940;50.900;4.672;2023-08-21T00:07:46;21.70;99.90
9802;DHT22;4940;50.900;4.672;2023-08-21T00:10:16;21.70;99.90
9802;DHT22;4940;50.900;4.672;2023-08-21T00:15:11;21.50;99.90
9802;DHT22;4940;50.900;4.672;2023-08-21T00:17:39;21.50;99.90
9802;DHT22;4940;50.900;4.672;2023-08-21T00:20:09;21.50;99.90
9802;DHT22;4940;50.900;4.672;2023-08-21T00:25:04;21.50;99.90
9802;DHT22;4940;50.900;4.672;2023-08-21T00:27:32;21.40;99.90
9802;DHT22;4940;50.900;4.672;2023-08-21T00:30:01;21.40;99.90
9802;DHT22;4940;50.900;4.672;2023-08-21T00:32:28;21.40;99.90
9802;DHT22;4940;50.900;4.672;2023-08-21T00:34:55;21.40;99.90
9802;DHT22;4940;50.900;4.672;2023-08-21T00:37:24;21.40;99.90
9802;DHT22;4940;50.900;4.672;2023-08-21T00:39:52;21.50;99.90
9802;DHT22;4940;50.900;4.672;2023-08-21T00:42:19;21.50;99.90
9802;DHT22;4940;50.900;4.672;2023-08-21T00:44:46;21.50;99.90
9802;DHT22;4940;50.900;4.672;2023-08-21T00:47:14;21.50;99.90
9802;DHT22;4940;50.900;4.672;2023-08-21T00:49:41;21.40;99.90
9802;DHT22;4940;50.900;4.672;2023-08-21T00:52:11;21.40;99.90
9802;DHT22;4940;50.900;4.672;2023-08-21T00:54:42;21.30;99.90
9802;DHT22;4940;50.900;4.672;2023-08-21T00:59:40;21.30;99.90
9802;DHT22;4940;50.900;4.672;2023-08-21T01:02:08;21.20;99.90
9802;DHT22;4940;50.900;4.672;2023-08-21T01:04:35;21.20;99.90
9802;DHT22;4940;50.900;4.672;2023-08-21T01:07:03;21.20;99.90
9802;DHT22;4940;50.900;4.672;2023-08-21T01:09:42;21.10;99.90
9802;DHT22;4940;50.900;4.672;2023-08-21T01:12:17;21.20;99.90
9802;DHT22;4940;50.900;4.672;2023-08-21T01:14:53;21.00;99.90
9802;DHT22;4940;50.900;4.672;2023-08-21T01:17:22;21.00;99.90
9802;DHT22;4940;50.900;4.672;2023-08-21T01:19:51;21.00;99.90
9802;DHT22;4940;50.900;4.672;2023-08-21T01:22:19;21.00;99.90
9802;DHT22;4940;50.900;4.672;2023-08-21T01:24:47;20.90;99.90
9802;DHT22;4940;50.900;4.672;2023-08-21T01:27:15;20.80;99.90
9802;DHT22;4940;50.900;4.672;2023-08-21T01:29:43;20.90;99.90
9802;DHT22;4940;50.900;4.672;2023-08-21T01:32:16;20.80;99.90
9802;DHT22;4940;50.900;4.672;2023-08-21T01:34:46;20.80;99.90
9802;DHT22;4940;50.900;4.672;2023-08-21T01:37:14;20.70;99.90
9802;DHT22;4940;50.900;4.672;2023-08-21T01:39:42;20.60;99.90
9802;DHT22;4940;50.900;4.672;2023-08-21T01:42:11;20.60;99.90
9802;DHT22;4940;50.900;4.672;2023-08-21T01:44:38;20.50;99.90
9802;DHT22;4940;50.900;4.672;2023-08-21T01:47:06;20.50;99.90
9802;DHT22;4940;50.900;4.672;2023-08-21T01:49:33;20.50;99.90
9802;DHT22;4940;50.900;4.672;2023-08-21T01:52:00;20.40;99.90
9802;DHT22;4940;50.900;4.672;2023-08-21T01:54:28;20.40;99.90
9802;DHT22;4940;50.900;4.672;2023-08-21T01:56:55;20.30;99.90
9802;DHT22;4940;50.900;4.672;2023-08-21T01:59:25;20.30;99.90
9802;DHT22;4940;50.900;4.672;2023-08-21T02:01:52;20.30;99.90
9802;DHT22;4940;50.900;4.672;2023-08-21T02:04:19;20.20;99.90
9802;DHT22;4940;50.900;4.672;2023-08-21T02:06:47;20.20;99.90
9802;DHT22;4940;50.900;4.672;2023-08-21T02:09:14;20.10;99.90
9802;DHT22;4940;50.900;4.672;2023-08-21T02:11:41;20.20;99.90
9802;DHT22;4940;50.900;4.672;2023-08-21T02:14:09;20.10;99.90
9802;DHT22;4940;50.900;4.672;2023-08-21T02:16:37;20.10;99.90
9802;DHT22;4940;50.900;4.672;2023-08-21T02:19:05;20.10;99.90
9802;DHT22;4940;50.900;4.672;2023-08-21T02:21:34;20.00;99.90
9802;DHT22;4940;50.900;4.672;2023-08-21T02:24:02;20.00;99.90
9802;DHT22;4940;50.900;4.672;2023-08-21T02:26:29;20.00;99.90
9802;DHT22;4940;50.900;4.672;2023-08-21T02:28:56;19.90;99.90
9802;DHT22;4940;50.900;4.672;2023-08-21T02:31:24;19.90;99.90
9802;DHT22;4940;50.900;4.672;2023-08-21T02:33:53;19.90;99.90
9802;DHT22;4940;50.900;4.672;2023-08-21T02:36:21;19.90;99.90
9802;DHT22;4940;50.900;4.672;2023-08-21T02:38:50;19.80;99.90
9802;DHT22;4940;50.900;4.672;2023-08-21T02:41:17;19.70;99.90
9802;DHT22;4940;50.900;4.672;2023-08-21T02:43:45;19.70;99.90
9802;DHT22;4940;50.900;4.672;2023-08-21T02:46:12;19.70;99.90
9802;DHT22;4940;50.900;4.672;2023-08-21T02:48:40;19.70;99.90
9802;DHT22;4940;50.900;4.672;2023-08-21T02:53:36;19.60;99.90
9802;DHT22;4940;50.900;4.672;2023-08-21T02:56:03;19.60;99.90
9802;DHT22;4940;50.900;4.672;2023-08-21T02:58:30;19.60;99.90
9802;DHT22;4940;50.900;4.672;2023-08-21T03:03:25;19.60;99.90
9802;DHT22;4940;50.900;4.672;2023-08-21T03:05:52;19.40;99.90
9802;DHT22;4940;50.900;4.672;2023-08-21T03:08:21;19.50;99.90
9802;DHT22;4940;50.900;4.672;2023-08-21T03:10:48;19.50;99.90
9802;DHT22;4940;50.900;4.672;2023-08-21T03:13:16;19.50;99.90
9802;DHT22;4940;50.900;4.672;2023-08-21T03:15:43;19.50;99.90
9802;DHT22;4940;50.900;4.672;2023-08-21T03:18:12;19.50;99.90
9802;DHT22;4940;50.900;4.672;2023-08-21T03:20:44;19.60;99.90
9802;DHT22;4940;50.900;4.672;2023-08-21T03:23:11;19.60;99.90
9802;DHT22;4940;50.900;4.672;2023-08-21T03:25:40;19.60;99.90
9802;DHT22;4940;50.900;4.672;2023-08-21T03:28:07;19.60;99.90
9802;DHT22;4940;50.900;4.672;2023-08-21T03:30:35;19.60;99.90
9802;DHT22;4940;50.900;4.672;2023-08-21T03:33:02;19.70;99.90
9802;DHT22;4940;50.900;4.672;2023-08-21T03:35:30;19.60;99.90
9802;DHT22;4940;50.900;4.672;2023-08-21T03:37:57;19.60;99.90
9802;DHT22;4940;50.900;4.672;2023-08-21T03:40:24;19.60;99.90
9802;DHT22;4940;50.900;4.672;2023-08-21T03:42:53;19.90;99.90
9802;DHT22;4940;50.900;4.672;2023-08-21T03:47:47;19.60;99.90
9802;DHT22;4940;50.900;4.672;2023-08-21T03:50:15;19.60;99.90
9802;DHT22;4940;50.900;4.672;2023-08-21T03:52:42;19.50;99.90
9802;DHT22;4940;50.900;4.672;2023-08-21T03:55:10;19.50;99.90
9802;DHT22;4940;50.900;4.672;2023-08-21T03:57:37;19.50;99.90
9802;DHT22;4940;50.900;4.672;2023-08-21T04:00:07;21.80;99.90
9802;DHT22;4940;50.900;4.672;2023-08-21T04:02:35;19.40;99.90
9802;DHT22;4940;50.900;4.672;2023-08-21T04:05:02;19.40;99.90
9802;DHT22;4940;50.900;4.672;2023-08-21T04:07:30;19.30;99.90
9802;DHT22;4940;50.900;4.672;2023-08-21T04:09:57;19.30;99.90
9802;DHT22;4940;50.900;4.672;2023-08-21T04:12:25;19.30;99.90
9802;DHT22;4940;50.900;4.672;2023-08-21T04:14:52;19.30;99.90
9802;DHT22;4940;50.900;4.672;2023-08-21T04:17:22;19.20;99.90
9802;DHT22;4940;50.900;4.672;2023-08-21T04:19:49;19.30;99.90
9802;DHT22;4940;50.900;4.672;2023-08-21T04:22:17;19.20;99.90
9802;DHT22;4940;50.900;4.672;2023-08-21T04:24:44;19.20;99.90
9802;DHT22;4940;50.900;4.672;2023-08-21T04:29:39;19.10;99.90
9802;DHT22;4940;50.900;4.672;2023-08-21T04:34:35;19.20;99.90
9802;DHT22;4940;50.900;4.672;2023-08-21T04:37:03;19.00;99.90
9802;DHT22;4940;50.900;4.672;2023-08-21T04:39:31;19.00;99.90
9802;DHT22;4940;50.900;4.672;2023-08-21T04:41:58;18.90;99.90
9802;DHT22;4940;50.900;4.672;2023-08-21T04:44:25;18.90;99.90
9802;DHT22;4940;50.900;4.672;2023-08-21T04:46:53;18.80;99.90
9802;DHT22;4940;50.900;4.672;2023-08-21T04:49:20;18.90;99.90
9802;DHT22;4940;50.900;4.672;2023-08-21T04:51:48;18.90;99.90
9802;DHT22;4940;50.900;4.672;2023-08-21T04:54:16;18.80;99.90
9802;DHT22;4940;50.900;4.672;2023-08-21T04:56:44;18.80;99.90
9802;DHT22;4940;50.900;4.672;2023-08-21T04:59:11;18.80;99.90
9802;DHT22;4940;50.900;4.672;2023-08-21T05:01:38;18.80;99.90
9802;DHT22;4940;50.900;4.672;2023-08-21T05:04:06;18.80;99.90
9802;DHT22;4940;50.900;4.672;2023-08-21T05:06:33;14.80;99.90
9802;DHT22;4940;50.900;4.672;2023-08-21T05:09:02;18.80;99.90
9802;DHT22;4940;50.900;4.672;2023-08-21T05:11:29;18.80;99.90
9802;DHT22;4940;50.900;4.672;2023-08-21T05:13:56;18.80;99.90
9802;DHT22;4940;50.900;4.672;2023-08-21T05:16:24;18.80;99.90
9802;DHT22;4940;50.900;4.672;2023-08-21T05:18:51;17.70;99.90
9802;DHT22;4940;50.900;4.672;2023-08-21T05:21:18;18.80;99.90
9802;DHT22;4940;50.900;4.672;2023-08-21T05:23:46;18.80;99.90
9802;DHT22;4940;50.900;4.672;2023-08-21T05:26:14;18.90;99.90
9802;DHT22;4940;50.900;4.672;2023-08-21T05:28:42;18.90;99.90
9802;DHT22;4940;50.900;4.672;2023-08-21T05:31:09;19.00;99.90
9802;DHT22;4940;50.900;4.672;2023-08-21T05:33:36;19.20;99.90
9802;DHT22;4940;50.900;4.672;2023-08-21T05:36:05;19.50;99.90
9802;DHT22;4940;50.900;4.672;2023-08-21T05:38:32;20.00;99.90
9802;DHT22;4940;50.900;4.672;2023-08-21T05:40:59;20.40;99.90
9802;DHT22;4940;50.900;4.672;2023-08-21T05:43:28;20.90;99.90
9802;DHT22;4940;50.900;4.672;2023-08-21T05:45:56;21.40;99.90
9802;DHT22;4940;50.900;4.672;2023-08-21T05:48:23;22.20;99.90
9802;DHT22;4940;50.900;4.672;2023-08-21T05:50:51;22.30;99.90
9802;DHT22;4940;50.900;4.672;2023-08-21T05:53:19;22.30;99.90
9802;DHT22;4940;50.900;4.672;2023-08-21T05:55:46;23.20;99.90
9802;DHT22;4940;50.900;4.672;2023-08-21T05:58:14;23.20;99.90
9802;DHT22;4940;50.900;4.672;2023-08-21T06:00:42;24.10;99.90
9802;DHT22;4940;50.900;4.672;2023-08-21T06:03:10;24.40;99.90
9802;DHT22;4940;50.900;4.672;2023-08-21T06:05:37;24.70;99.90
9802;DHT22;4940;50.900;4.672;2023-08-21T06:08:05;25.00;99.90
9802;DHT22;4940;50.900;4.672;2023-08-21T06:10:34;25.00;99.90
9802;DHT22;4940;50.900;4.672;2023-08-21T06:13:02;25.40;99.90
9802;DHT22;4940;50.900;4.672;2023-08-21T06:15:29;25.40;99.90
9802;DHT22;4940;50.900;4.672;2023-08-21T06:17:59;25.40;99.90
9802;DHT22;4940;50.900;4.672;2023-08-21T06:20:26;24.90;99.90
9802;DHT22;4940;50.900;4.672;2023-08-21T06:22:54;24.60;99.90
9802;DHT22;4940;50.900;4.672;2023-08-21T06:27:48;24.40;99.90
9802;DHT22;4940;50.900;4.672;2023-08-21T06:30:16;24.10;99.90
9802;DHT22;4940;50.900;4.672;2023-08-21T06:32:43;23.60;99.90
9802;DHT22;4940;50.900;4.672;2023-08-21T06:35:12;23.30;99.90
9802;DHT22;4940;50.900;4.672;2023-08-21T06:40:08;23.00;99.90
9802;DHT22;4940;50.900;4.672;2023-08-21T06:42:36;22.90;99.90
9802;DHT22;4940;50.900;4.672;2023-08-21T06:45:04;22.60;99.90
9802;DHT22;4940;50.900;4.672;2023-08-21T06:47:31;22.70;99.90
9802;DHT22;4940;50.900;4.672;2023-08-21T06:49:59;22.60;99.90
9802;DHT22;4940;50.900;4.672;2023-08-21T06:52:28;22.60;99.90
9802;DHT22;4940;50.900;4.672;2023-08-21T06:54:55;22.50;99.90
9802;DHT22;4940;50.900;4.672;2023-08-21T06:57:23;22.40;99.90
9802;DHT22;4940;50.900;4.672;2023-08-21T06:59:50;22.50;99.90
9802;DHT22;4940;50.900;4.672;2023-08-21T07:02:17;22.60;99.90
9802;DHT22;4940;50.900;4.672;2023-08-21T07:07:12;22.30;99.90
9802;DHT22;4940;50.900;4.672;2023-08-21T07:09:40;22.40;99.90
9802;DHT22;4940;50.900;4.672;2023-08-21T07:12:08;22.30;99.90
9802;DHT22;4940;50.900;4.672;2023-08-21T07:14:35;22.40;99.90
9802;DHT22;4940;50.900;4.672;2023-08-21T07:17:03;22.30;99.90
9802;DHT22;4940;50.900;4.672;2023-08-21T07:19:30;22.40;99.90
9802;DHT22;4940;50.900;4.672;2023-08-21T07:21:58;22.40;99.90
9802;DHT22;4940;50.900;4.672;2023-08-21T07:26:54;22.40;99.90
9802;DHT22;4940;50.900;4.672;2023-08-21T07:29:21;22.50;99.90
9802;DHT22;4940;50.900;4.672;2023-08-21T07:31:48;22.60;99.90
9802;DHT22;4940;50.900;4.672;2023-08-21T07:34:16;22.60;99.90
9802;DHT22;4940;50.900;4.672;2023-08-21T07:36:43;22.60;99.90
9802;DHT22;4940;50.900;4.672;2023-08-21T07:39:10;22.90;99.90
9802;DHT22;4940;50.900;4.672;2023-08-21T07:41:37;23.30;99.90
9802;DHT22;4940;50.900;4.672;2023-08-21T07:44:06;24.30;99.90
9802;DHT22;4940;50.900;4.672;2023-08-21T07:46:33;25.20;99.90
9802;DHT22;4940;50.900;4.672;2023-08-21T07:49:01;22.90;99.90
9802;DHT22;4940;50.900;4.672;2023-08-21T07:51:28;25.90;99.90
9802;DHT22;4940;50.900;4.672;2023-08-21T07:56:23;28.00;99.90
9802;DHT22;4940;50.900;4.672;2023-08-21T08:01:19;29.20;99.90
9802;DHT22;4940;50.900;4.672;2023-08-21T08:03:47;29.80;99.90
9802;DHT22;4940;50.900;4.672;2023-08-21T08:06:15;29.80;99.90
9802;DHT22;4940;50.900;4.672;2023-08-21T08:08:42;30.40;99.90
9802;DHT22;4940;50.900;4.672;2023-08-21T08:11:10;30.80;99.90
9802;DHT22;4940;50.900;4.672;2023-08-21T08:13:37;31.20;99.90
9802;DHT22;4940;50.900;4.672;2023-08-21T08:16:04;31.10;99.90
9802;DHT22;4940;50.900;4.672;2023-08-21T08:18:33;31.10;99.90
9802;DHT22;4940;50.900;4.672;2023-08-21T08:21:00;34.70;99.90
9802;DHT22;4940;50.900;4.672;2023-08-21T08:23:28;31.10;99.90
9802;DHT22;4940;50.900;4.672;2023-08-21T08:25:55;31.30;99.90
9802;DHT22;4940;50.900;4.672;2023-08-21T08:28:23;31.10;99.90
9802;DHT22;4940;50.900;4.672;2023-08-21T08:30:50;30.90;99.90
9802;DHT22;4940;50.900;4.672;2023-08-21T08:33:18;30.70;99.90
9802;DHT22;4940;50.900;4.672;2023-08-21T08:35:47;30.80;99.90
9802;DHT22;4940;50.900;4.672;2023-08-21T08:38:15;31.10;99.90
9802;DHT22;4940;50.900;4.672;2023-08-21T08:40:44;29.40;99.90
9802;DHT22;4940;50.900;4.672;2023-08-21T08:43:12;31.40;99.90
9802;DHT22;4940;50.900;4.672;2023-08-21T08:45:41;32.30;99.90
9802;DHT22;4940;50.900;4.672;2023-08-21T08:48:08;32.60;99.50
9802;DHT22;4940;50.900;4.672;2023-08-21T08:50:38;32.60;99.70
9802;DHT22;4940;50.900;4.672;2023-08-21T08:53:07;33.00;99.00
9802;DHT22;4940;50.900;4.672;2023-08-21T08:58:02;35.00;98.70
9802;DHT22;4940;50.900;4.672;2023-08-21T09:00:31;34.10;98.10
9802;DHT22;4940;50.900;4.672;2023-08-21T09:02:58;34.30;97.20
9802;DHT22;4940;50.900;4.672;2023-08-21T09:05:26;34.50;96.70
9802;DHT22;4940;50.900;4.672;2023-08-21T09:08:11;35.00;96.10
9802;DHT22;4940;50.900;4.672;2023-08-21T09:10:40;35.20;96.10
9802;DHT22;4940;50.900;4.672;2023-08-21T09:13:14;35.50;95.80
9802;DHT22;4940;50.900;4.672;2023-08-21T09:15:43;34.80;94.70
9802;DHT22;4940;50.900;4.672;2023-08-21T09:18:11;35.80;93.50
9802;DHT22;4940;50.900;4.672;2023-08-21T09:20:39;36.10;91.60
9802;DHT22;4940;50.900;4.672;2023-08-21T09:23:06;36.10;91.80
9802;DHT22;4940;50.900;4.672;2023-08-21T09:25:39;36.20;92.20
9802;DHT22;4940;50.900;4.672;2023-08-21T09:28:08;36.20;93.00
9802;DHT22;4940;50.900;4.672;2023-08-21T09:30:53;36.50;92.40
9802;DHT22;4940;50.900;4.672;2023-08-21T09:33:24;36.50;91.40
9802;DHT22;4940;50.900;4.672;2023-08-21T09:35:52;36.50;91.30
9802;DHT22;4940;50.900;4.672;2023-08-21T09:38:19;36.50;90.40
9802;DHT22;4940;50.900;4.672;2023-08-21T09:40:52;36.70;90.90
9802;DHT22;4940;50.900;4.672;2023-08-21T09:43:20;36.80;90.50
9802;DHT22;4940;50.900;4.672;2023-08-21T09:45:48;36.70;90.30
9802;DHT22;4940;50.900;4.672;2023-08-21T09:48:16;36.90;89.60
9802;DHT22;4940;50.900;4.672;2023-08-21T09:50:44;33.70;84.90
9802;DHT22;4940;50.900;4.672;2023-08-21T09:53:11;36.90;86.50
9802;DHT22;4940;50.900;4.672;2023-08-21T09:55:39;37.10;86.10
9802;DHT22;4940;50.900;4.672;2023-08-21T09:58:09;37.00;84.10
9802;DHT22;4940;50.900;4.672;2023-08-21T10:00:37;37.10;84.80
9802;DHT22;4940;50.900;4.672;2023-08-21T10:03:07;37.20;85.00
9802;DHT22;4940;50.900;4.672;2023-08-21T10:05:37;37.20;84.80
9802;DHT22;4940;50.900;4.672;2023-08-21T10:08:06;38.00;86.00
9802;DHT22;4940;50.900;4.672;2023-08-21T10:10:34;37.30;86.10
9802;DHT22;4940;50.900;4.672;2023-08-21T10:13:02;37.20;85.40
9802;DHT22;4940;50.900;4.672;2023-08-21T10:15:32;37.20;84.60
9802;DHT22;4940;50.900;4.672;2023-08-21T10:18:18;37.20;84.00
9802;DHT22;4940;50.900;4.672;2023-08-21T10:20:45;37.20;83.90
9802;DHT22;4940;50.900;4.672;2023-08-21T10:23:24;37.10;84.20
9802;DHT22;4940;50.900;4.672;2023-08-21T10:25:55;37.20;82.70
9802;DHT22;4940;50.900;4.672;2023-08-21T10:28:22;37.20;82.90
9802;DHT22;4940;50.900;4.672;2023-08-21T10:30:51;36.80;81.60
9802;DHT22;4940;50.900;4.672;2023-08-21T10:33:45;36.50;80.80
9802;DHT22;4940;50.900;4.672;2023-08-21T10:36:13;36.40;80.70
9802;DHT22;4940;50.900;4.672;2023-08-21T10:39:01;36.40;81.10
9802;DHT22;4940;50.900;4.672;2023-08-21T10:41:30;36.40;81.90
9802;DHT22;4940;50.900;4.672;2023-08-21T10:43:57;38.10;82.50
9802;DHT22;4940;50.900;4.672;2023-08-21T10:46:27;36.60;81.00
9802;DHT22;4940;50.900;4.672;2023-08-21T10:49:08;36.70;81.10
9802;DHT22;4940;50.900;4.672;2023-08-21T10:51:35;36.70;80.90
9802;DHT22;4940;50.900;4.672;2023-08-21T10:54:11;36.80;81.40
9802;DHT22;4940;50.900;4.672;2023-08-21T10:56:38;36.80;81.00
9802;DHT22;4940;50.900;4.672;2023-08-21T10:59:05;36.80;81.60
9802;DHT22;4940;50.900;4.672;2023-08-21T11:01:43;36.60;81.20
9802;DHT22;4940;50.900;4.672;2023-08-21T11:04:11;37.10;81.40
9802;DHT22;4940;50.900;4.672;2023-08-21T11:06:38;36.80;80.40
9802;DHT22;4940;50.900;4.672;2023-08-21T11:09:12;36.90;80.40
9802;DHT22;4940;50.900;4.672;2023-08-21T11:11:39;36.80;79.90
9802;DHT22;4940;50.900;4.672;2023-08-21T11:14:06;36.70;81.60
9802;DHT22;4940;50.900;4.672;2023-08-21T11:16:34;36.70;80.20
9802;DHT22;4940;50.900;4.672;2023-08-21T11:19:05;36.60;81.00
9802;DHT22;4940;50.900;4.672;2023-08-21T11:21:32;36.50;80.20
9802;DHT22;4940;50.900;4.672;2023-08-21T11:23:59;36.50;79.60
9802;DHT22;4940;50.900;4.672;2023-08-21T11:26:27;36.30;79.00
9802;DHT22;4940;50.900;4.672;2023-08-21T11:28:56;36.30;78.80
9802;DHT22;4940;50.900;4.672;2023-08-21T11:31:23;36.20;79.10
9802;DHT22;4940;50.900;4.672;2023-08-21T11:33:51;36.20;79.50
9802;DHT22;4940;50.900;4.672;2023-08-21T11:36:19;36.10;80.10
9802;DHT22;4940;50.900;4.672;2023-08-21T11:38:58;36.20;79.90
9802;DHT22;4940;50.900;4.672;2023-08-21T11:41:26;36.20;78.30
9802;DHT22;4940;50.900;4.672;2023-08-21T11:43:57;36.00;79.20
9802;DHT22;4940;50.900;4.672;2023-08-21T11:46:28;36.10;79.10
9802;DHT22;4940;50.900;4.672;2023-08-21T11:48:55;36.00;79.80
9802;DHT22;4940;50.900;4.672;2023-08-21T11:51:24;35.90;80.20
9802;DHT22;4940;50.900;4.672;2023-08-21T11:53:52;35.80;79.50
9802;DHT22;4940;50.900;4.672;2023-08-21T11:56:19;35.80;80.80
9802;DHT22;4940;50.900;4.672;2023-08-21T11:58:47;35.80;80.70
9802;DHT22;4940;50.900;4.672;2023-08-21T12:01:18;35.80;78.40
9802;DHT22;4940;50.900;4.672;2023-08-21T12:03:46;35.60;77.60
9802;DHT22;4940;50.900;4.672;2023-08-21T12:06:21;35.50;78.60
9802;DHT22;4940;50.900;4.672;2023-08-21T12:08:50;35.30;78.40
9802;DHT22;4940;50.900;4.672;2023-08-21T12:11:17;35.30;78.30
9802;DHT22;4940;50.900;4.672;2023-08-21T12:13:44;34.80;79.10
9802;DHT22;4940;50.900;4.672;2023-08-21T12:16:11;34.60;79.70
9802;DHT22;4940;50.900;4.672;2023-08-21T12:18:39;34.10;80.70
9802;DHT22;4940;50.900;4.672;2023-08-21T12:23:34;34.30;79.80
9802;DHT22;4940;50.900;4.672;2023-08-21T12:26:02;34.00;80.50
9802;DHT22;4940;50.900;4.672;2023-08-21T12:28:29;33.80;80.50
9802;DHT22;4940;50.900;4.672;2023-08-21T12:30:57;33.50;81.40
9802;DHT22;4940;50.900;4.672;2023-08-21T12:33:24;33.50;82.70
9802;DHT22;4940;50.900;4.672;2023-08-21T12:35:52;33.60;83.70
9802;DHT22;4940;50.900;4.672;2023-08-21T12:38:19;33.10;84.10
9802;DHT22;4940;50.900;4.672;2023-08-21T12:40:47;33.00;83.90
9802;DHT22;4940;50.900;4.672;2023-08-21T12:43:15;33.00;84.40
9802;DHT22;4940;50.900;4.672;2023-08-21T12:45:43;33.00;84.70
9802;DHT22;4940;50.900;4.672;2023-08-21T12:48:11;32.80;84.70
9802;DHT22;4940;50.900;4.672;2023-08-21T12:50:38;30.50;82.90
9802;DHT22;4940;50.900;4.672;2023-08-21T12:53:05;32.70;83.20
9802;DHT22;4940;50.900;4.672;2023-08-21T12:55:33;32.50;83.00
9802;DHT22;4940;50.900;4.672;2023-08-21T12:58:00;36.10;86.90
9802;DHT22;4940;50.900;4.672;2023-08-21T13:00:29;32.50;85.40
9802;DHT22;4940;50.900;4.672;2023-08-21T13:02:58;32.40;83.30
9802;DHT22;4940;50.900;4.672;2023-08-21T13:05:25;32.30;83.50
9802;DHT22;4940;50.900;4.672;2023-08-21T13:07:53;32.30;84.40
9802;DHT22;4940;50.900;4.672;2023-08-21T13:10:20;32.20;84.30
9802;DHT22;4940;50.900;4.672;2023-08-21T13:12:47;32.00;83.30
9802;DHT22;4940;50.900;4.672;2023-08-21T13:15:15;32.30;83.40
9802;DHT22;4940;50.900;4.672;2023-08-21T13:17:44;30.70;83.10
9802;DHT22;4940;50.900;4.672;2023-08-21T13:20:12;31.50;86.00
9802;DHT22;4940;50.900;4.672;2023-08-21T13:22:46;31.40;86.40
9802;DHT22;4940;50.900;4.672;2023-08-21T13:25:14;31.40;86.20
9802;DHT22;4940;50.900;4.672;2023-08-21T13:27:42;31.40;86.40
9802;DHT22;4940;50.900;4.672;2023-08-21T13:30:10;31.40;85.90
9802;DHT22;4940;50.900;4.672;2023-08-21T13:32:37;31.50;87.10
9802;DHT22;4940;50.900;4.672;2023-08-21T13:35:07;31.50;87.00
9802;DHT22;4940;50.900;4.672;2023-08-21T13:37:35;31.50;86.40
9802;DHT22;4940;50.900;4.672;2023-08-21T13:40:02;32.80;89.30
9802;DHT22;4940;50.900;4.672;2023-08-21T13:42:37;31.40;88.30
9802;DHT22;4940;50.900;4.672;2023-08-21T13:45:08;31.30;88.50
9802;DHT22;4940;50.900;4.672;2023-08-21T13:47:37;31.30;87.20
9802;DHT22;4940;50.900;4.672;2023-08-21T13:50:07;34.00;90.20
9802;DHT22;4940;50.900;4.672;2023-08-21T13:52:35;31.20;88.30
9802;DHT22;4940;50.900;4.672;2023-08-21T13:55:02;31.10;88.30
9802;DHT22;4940;50.900;4.672;2023-08-21T13:57:30;31.10;88.60
9802;DHT22;4940;50.900;4.672;2023-08-21T14:02:26;30.90;89.60
9802;DHT22;4940;50.900;4.672;2023-08-21T14:04:53;30.90;88.30
9802;DHT22;4940;50.900;4.672;2023-08-21T14:07:22;30.90;88.60
9802;DHT22;4940;50.900;4.672;2023-08-21T14:09:49;30.90;88.30
9802;DHT22;4940;50.900;4.672;2023-08-21T14:12:16;30.80;88.90
9802;DHT22;4940;50.900;4.672;2023-08-21T14:14:44;30.80;87.90
9802;DHT22;4940;50.900;4.672;2023-08-21T14:17:11;30.80;87.70
9802;DHT22;4940;50.900;4.672;2023-08-21T14:19:39;30.80;88.40
9802;DHT22;4940;50.900;4.672;2023-08-21T14:22:06;30.70;89.80
9802;DHT22;4940;50.900;4.672;2023-08-21T14:24:35;30.70;89.70
9802;DHT22;4940;50.900;4.672;2023-08-21T14:27:02;30.70;89.70
9802;DHT22;4940;50.900;4.672;2023-08-21T14:29:30;30.60;89.10
9802;DHT22;4940;50.900;4.672;2023-08-21T14:31:58;30.60;88.70
9802;DHT22;4940;50.900;4.672;2023-08-21T14:34:26;30.60;89.40
9802;DHT22;4940;50.900;4.672;2023-08-21T14:36:54;30.50;90.10
9802;DHT22;4940;50.900;4.672;2023-08-21T14:39:22;30.60;90.30
9802;DHT22;4940;50.900;4.672;2023-08-21T14:41:55;30.50;90.10
9802;DHT22;4940;50.900;4.672;2023-08-21T14:46:51;30.40;90.30
9802;DHT22;4940;50.900;4.672;2023-08-21T14:54:13;30.30;90.00
9802;DHT22;4940;50.900;4.672;2023-08-21T14:56:41;30.20;90.20
9802;DHT22;4940;50.900;4.672;2023-08-21T14:59:09;30.10;90.10
9802;DHT22;4940;50.900;4.672;2023-08-21T15:01:37;30.10;90.40
9802;DHT22;4940;50.900;4.672;2023-08-21T15:04:05;30.00;89.70
9802;DHT22;4940;50.900;4.672;2023-08-21T15:06:32;29.90;89.90
9802;DHT22;4940;50.900;4.672;2023-08-21T15:08:59;30.00;89.90
9802;DHT22;4940;50.900;4.672;2023-08-21T15:11:26;29.90;90.00
9802;DHT22;4940;50.900;4.672;2023-08-21T15:13:54;29.90;89.90
9802;DHT22;4940;50.900;4.672;2023-08-21T15:16:23;29.80;90.20
9802;DHT22;4940;50.900;4.672;2023-08-21T15:18:50;29.70;90.10
9802;DHT22;4940;50.900;4.672;2023-08-21T15:21:18;29.80;90.00
9802;DHT22;4940;50.900;4.672;2023-08-21T15:23:46;29.60;90.20
9802;DHT22;4940;50.900;4.672;2023-08-21T15:26:13;29.60;89.80
9802;DHT22;4940;50.900;4.672;2023-08-21T15:28:40;29.50;89.90
9802;DHT22;4940;50.900;4.672;2023-08-21T15:31:08;29.40;90.00
9802;DHT22;4940;50.900;4.672;2023-08-21T15:33:36;29.50;90.10
9802;DHT22;4940;50.900;4.672;2023-08-21T15:36:04;29.60;90.10
9802;DHT22;4940;50.900;4.672;2023-08-21T15:38:31;29.50;90.30
9802;DHT22;4940;50.900;4.672;2023-08-21T15:40:58;29.50;90.40
9802;DHT22;4940;50.900;4.672;2023-08-21T15:43:26;29.40;90.00
9802;DHT22;4940;50.900;4.672;2023-08-21T15:45:53;29.40;90.00
9802;DHT22;4940;50.900;4.672;2023-08-21T15:50:49;29.30;89.70
9802;DHT22;4940;50.900;4.672;2023-08-21T15:53:17;29.20;90.00
9802;DHT22;4940;50.900;4.672;2023-08-21T15:55:44;29.20;90.40
9802;DHT22;4940;50.900;4.672;2023-08-21T15:58:12;29.10;90.40
9802;DHT22;4940;50.900;4.672;2023-08-21T16:00:41;29.20;90.30
9802;DHT22;4940;50.900;4.672;2023-08-21T16:03:08;29.00;89.80
9802;DHT22;4940;50.900;4.672;2023-08-21T16:05:36;29.00;89.80
9802;DHT22;4940;50.900;4.672;2023-08-21T16:08:05;29.00;90.00
9802;DHT22;4940;50.900;4.672;2023-08-21T16:10:32;29.00;90.10
9802;DHT22;4940;50.900;4.672;2023-08-21T16:13:00;29.00;89.90
9802;DHT22;4940;50.900;4.672;2023-08-21T16:15:27;28.90;89.80
9802;DHT22;4940;50.900;4.672;2023-08-21T16:17:55;32.10;91.10
9802;DHT22;4940;50.900;4.672;2023-08-21T16:20:23;28.80;89.10
9802;DHT22;4940;50.900;4.672;2023-08-21T16:22:53;28.70;89.40
9802;DHT22;4940;50.900;4.672;2023-08-21T16:25:22;25.50;87.10
9802;DHT22;4940;50.900;4.672;2023-08-21T16:27:50;28.80;90.00
9802;DHT22;4940;50.900;4.672;2023-08-21T16:30:17;28.60;90.00
9802;DHT22;4940;50.900;4.672;2023-08-21T16:32:45;28.60;90.00
9802;DHT22;4940;50.900;4.672;2023-08-21T16:35:12;28.40;89.60
9802;DHT22;4940;50.900;4.672;2023-08-21T16:37:39;28.30;90.10
9802;DHT22;4940;50.900;4.672;2023-08-21T16:40:08;28.60;89.90
9802;DHT22;4940;50.900;4.672;2023-08-21T16:42:37;28.50;90.20
9802;DHT22;4940;50.900;4.672;2023-08-21T16:45:05;28.40;90.10
9802;DHT22;4940;50.900;4.672;2023-08-21T16:47:32;28.60;89.80
9802;DHT22;4940;50.900;4.672;2023-08-21T16:50:00;30.20;90.40
9802;DHT22;4940;50.900;4.672;2023-08-21T16:52:27;28.40;89.40
9802;DHT22;4940;50.900;4.672;2023-08-21T16:54:55;28.40;90.00
9802;DHT22;4940;50.900;4.672;2023-08-21T16:57:23;28.30;89.30
9802;DHT22;4940;50.900;4.672;2023-08-21T16:59:51;28.30;89.10